createdAt,value
2023-03-26T00:02:34.609Z,3.81
2023-03-26T00:05:20.458Z,4.02
2023-03-26T00:08:06.905Z,4.01
2023-03-26T00:10:52.156Z,4.03
2023-03-26T00:13:38.281Z,3.79
2023-03-26T00:16:26.955Z,3.74
2023-03-26T00:19:12.106Z,3.87
2023-03-26T00:21:57.266Z,3.90
2023-03-26T00:24:42.744Z,4.07
2023-03-26T00:27:28.468Z,4.04
2023-03-26T00:30:13.994Z,4.07
2023-03-26T00:32:59.344Z,4.03
2023-03-26T00:35:44.857Z,3.55
2023-03-26T00:38:30.122Z,3.79
2023-03-26T00:41:17.900Z,3.99
2023-03-26T00:44:03.692Z,3.94
2023-03-26T00:46:49.054Z,4.17
2023-03-26T00:49:34.301Z,4.13
2023-03-26T00:52:20.090Z,4.20
2023-03-26T00:55:05.944Z,4.10
2023-03-26T00:57:51.377Z,4.18
2023-03-26T01:00:42.224Z,4.15
2023-03-26T01:03:29.821Z,4.26
2023-03-26T01:06:34.431Z,4.32
2023-03-26T01:09:21.878Z,4.50
2023-03-26T01:12:11.539Z,4.56
2023-03-26T01:14:59.251Z,4.24
2023-03-26T01:17:44.873Z,3.97
2023-03-26T01:20:32.345Z,3.85
2023-03-26T01:23:24.522Z,3.93
2023-03-26T01:26:45.379Z,3.74
2023-03-26T01:29:38.869Z,3.96
2023-03-26T01:32:45.450Z,3.81
2023-03-26T01:35:58.378Z,3.83
2023-03-26T01:38:52.100Z,3.77
2023-03-26T01:41:48.257Z,3.60
2023-03-26T01:45:11.773Z,3.65
2023-03-26T01:47:58.284Z,3.66
2023-03-26T01:50:44.075Z,3.36
2023-03-26T01:53:29.892Z,3.38
2023-03-26T01:56:26.120Z,3.49
2023-03-26T01:59:17.293Z,3.49
2023-03-26T02:02:14.237Z,3.62
2023-03-26T02:05:17.369Z,3.67
2023-03-26T02:08:02.477Z,3.95
2023-03-26T02:10:56.424Z,3.76
2023-03-26T02:13:45.030Z,3.47
2023-03-26T02:16:30.192Z,3.37
2023-03-26T02:19:15.699Z,2.99
2023-03-26T02:22:01.667Z,3.27
2023-03-26T02:24:49.808Z,3.19
2023-03-26T02:27:37.012Z,3.45
2023-03-26T02:30:24.699Z,3.37
2023-03-26T02:33:11.636Z,3.49
2023-03-26T02:36:00.126Z,3.48
2023-03-26T02:38:45.580Z,3.30
2023-03-26T02:41:32.571Z,3.44
2023-03-26T02:44:21.840Z,3.62
2023-03-26T02:47:16.762Z,3.69
2023-03-26T02:50:22.453Z,3.76
2023-03-26T02:53:27.760Z,3.56
2023-03-26T02:56:17.417Z,4.13
2023-03-26T02:59:17.166Z,3.93
2023-03-26T03:02:06.013Z,3.94
2023-03-26T03:04:52.286Z,4.12
2023-03-26T03:07:37.422Z,3.82
2023-03-26T03:10:22.617Z,4.18
2023-03-26T03:13:24.949Z,4.20
2023-03-26T03:16:11.086Z,4.23
2023-03-26T03:18:58.124Z,4.01
2023-03-26T03:21:52.232Z,4.27
2023-03-26T03:24:37.474Z,4.20
2023-03-26T03:27:24.080Z,4.37
2023-03-26T03:30:16.629Z,4.26
2023-03-26T03:33:05.252Z,4.35
2023-03-26T03:35:51.063Z,4.35
2023-03-26T03:38:38.676Z,4.17
2023-03-26T03:41:24.741Z,4.20
2023-03-26T03:44:09.798Z,4.12
2023-03-26T03:46:55.359Z,4.20
2023-03-26T03:49:40.644Z,4.15
2023-03-26T03:52:27.202Z,4.30
2023-03-26T03:55:13.098Z,4.40
2023-03-26T03:58:06.079Z,4.26
2023-03-26T04:00:53.025Z,4.16
2023-03-26T04:04:00.900Z,4.51
2023-03-26T04:06:59.889Z,4.37
2023-03-26T04:09:52.447Z,4.52
2023-03-26T04:12:39.940Z,4.73
2023-03-26T04:15:26.886Z,4.61
2023-03-26T04:18:12.245Z,4.61
2023-03-26T04:21:01.265Z,3.93
2023-03-26T04:23:47.572Z,4.53
2023-03-26T04:26:51.607Z,4.27
2023-03-26T04:29:46.507Z,4.59
2023-03-26T04:32:38.600Z,4.49
2023-03-26T04:35:24.210Z,4.53
2023-03-26T04:38:15.044Z,4.54
2023-03-26T04:41:04.104Z,4.54
2023-03-26T04:44:08.911Z,4.29
2023-03-26T04:47:12.188Z,4.12
2023-03-26T04:50:08.564Z,3.80
2023-03-26T04:52:56.666Z,3.99
2023-03-26T04:56:41.856Z,4.28
2023-03-26T04:59:30.543Z,4.37
2023-03-26T05:02:17.199Z,4.07
2023-03-26T05:05:11.987Z,4.33
2023-03-26T05:07:57.787Z,4.19
2023-03-26T05:10:43.395Z,4.31
2023-03-26T05:13:33.124Z,4.36
2023-03-26T05:16:24.611Z,4.28
2023-03-26T05:19:15.912Z,4.41
2023-03-26T05:22:01.027Z,4.45
2023-03-26T05:24:46.523Z,4.53
2023-03-26T05:27:33.261Z,4.57
2023-03-26T05:30:21.002Z,4.59
2023-03-26T05:33:11.160Z,4.53
2023-03-26T05:36:12.060Z,4.64
2023-03-26T05:38:59.353Z,4.61
2023-03-26T05:42:17.459Z,4.49
2023-03-26T05:45:21.791Z,4.29
2023-03-26T05:48:07.060Z,3.99
2023-03-26T05:50:55.501Z,3.88
2023-03-26T05:53:41.604Z,3.87
2023-03-26T05:56:45.479Z,3.66
2023-03-26T05:59:50.527Z,3.64
2023-03-26T06:02:56.799Z,3.89
2023-03-26T06:06:01.559Z,4.09
2023-03-26T06:09:01.831Z,4.01
2023-03-26T06:11:48.304Z,4.02
2023-03-26T06:14:33.596Z,4.18
2023-03-26T06:17:38.860Z,4.04
2023-03-26T06:20:51.225Z,3.96
2023-03-26T06:23:56.766Z,4.04
2023-03-26T06:27:01.639Z,4.00
2023-03-26T06:30:06.508Z,4.13
2023-03-26T06:33:11.751Z,4.02
2023-03-26T06:36:03.239Z,3.78
2023-03-26T06:38:49.043Z,4.13
2023-03-26T06:41:35.497Z,4.39
2023-03-26T06:44:33.482Z,4.44
2023-03-26T06:47:39.112Z,4.36
2023-03-26T06:50:43.384Z,4.97
2023-03-26T06:53:47.532Z,4.96
2023-03-26T06:56:56.525Z,4.86
2023-03-26T07:00:00.940Z,4.96
2023-03-26T07:03:05.523Z,4.56
2023-03-26T07:06:10.187Z,4.60
2023-03-26T07:09:16.102Z,4.90
2023-03-26T07:12:20.253Z,5.04
2023-03-26T07:15:34.365Z,5.12
2023-03-26T07:18:36.370Z,5.42
2023-03-26T07:21:23.294Z,5.50
2023-03-26T07:24:12.665Z,5.62
2023-03-26T07:27:37.255Z,5.38
2023-03-26T07:30:55.677Z,5.46
2023-03-26T07:34:02.411Z,5.56
2023-03-26T07:37:12.227Z,5.83
2023-03-26T07:41:02.429Z,5.94
2023-03-26T07:44:07.836Z,5.91
2023-03-26T07:47:17.513Z,6.00
2023-03-26T07:50:23.840Z,5.91
2023-03-26T07:53:24.085Z,5.89
2023-03-26T07:56:21.440Z,6.22
2023-03-26T07:59:49.248Z,6.32
2023-03-26T08:03:25.250Z,6.31
2023-03-26T08:06:34.658Z,6.32
2023-03-26T08:09:58.792Z,6.25
2023-03-26T08:13:26.582Z,6.20
2023-03-26T08:16:31.815Z,6.29
2023-03-26T08:19:32.500Z,5.05
2023-03-26T08:22:31.212Z,6.34
2023-03-26T08:25:28.233Z,6.36
2023-03-26T08:28:44.440Z,6.50
2023-03-26T08:31:35.992Z,6.31
2023-03-26T08:34:21.491Z,6.40
2023-03-26T08:37:06.929Z,6.40
2023-03-26T08:39:52.241Z,6.47
2023-03-26T08:43:03.674Z,6.17
2023-03-26T08:46:06.241Z,6.31
2023-03-26T08:49:42.559Z,6.59
2023-03-26T08:52:46.366Z,6.61
2023-03-26T08:55:49.331Z,6.60
2023-03-26T08:58:40.230Z,6.75
2023-03-26T09:01:44.309Z,6.82
2023-03-26T09:05:08.101Z,6.42
2023-03-26T09:07:55.898Z,6.42
2023-03-26T09:10:53.376Z,6.27
2023-03-26T09:13:38.424Z,6.26
2023-03-26T09:17:05.456Z,6.42
2023-03-26T09:20:26.493Z,6.50
2023-03-26T09:23:28.920Z,6.40
2023-03-26T09:26:36.754Z,6.37
2023-03-26T09:29:49.980Z,6.43
2023-03-26T09:32:56.571Z,6.27
2023-03-26T09:35:54.003Z,6.54
2023-03-26T09:38:39.213Z,6.75
2023-03-26T09:41:39.132Z,6.88
2023-03-26T09:44:36.402Z,6.97
2023-03-26T09:47:27.858Z,6.94
2023-03-26T09:50:21.662Z,6.68
2023-03-26T09:53:44.238Z,7.22
2023-03-26T09:57:03.769Z,7.04
2023-03-26T10:00:15.716Z,6.69
2023-03-26T10:03:16.489Z,7.09
2023-03-26T10:06:40.012Z,7.18
2023-03-26T10:09:43.191Z,7.11
2023-03-26T10:12:42.707Z,6.69
2023-03-26T10:15:34.458Z,7.15
2023-03-26T10:18:35.140Z,7.17
2023-03-26T10:21:55.787Z,7.23
2023-03-26T10:24:48.073Z,7.40
2023-03-26T10:27:33.492Z,7.31
2023-03-26T10:30:53.066Z,6.95
2023-03-26T10:34:03.918Z,6.88
2023-03-26T10:37:13.952Z,6.46
2023-03-26T10:40:31.744Z,6.22
2023-03-26T10:43:38.427Z,6.32
2023-03-26T10:46:54.757Z,6.24
2023-03-26T10:50:22.787Z,6.33
2023-03-26T10:53:15.441Z,6.40
2023-03-26T10:56:17.318Z,6.07
2023-03-26T10:59:27.031Z,6.12
2023-03-26T11:02:29.683Z,6.34
2023-03-26T11:05:46.281Z,6.29
2023-03-26T11:08:47.408Z,6.21
2023-03-26T11:12:26.330Z,6.07
2023-03-26T11:15:16.386Z,6.04
2023-03-26T11:18:17.409Z,6.05
2023-03-26T11:21:44.521Z,6.08
2023-03-26T11:24:49.048Z,6.04
2023-03-26T11:28:04.051Z,6.07
2023-03-26T11:31:04.152Z,6.13
2023-03-26T11:33:54.819Z,6.15
2023-03-26T11:36:46.074Z,5.74
2023-03-26T11:39:41.744Z,5.59
2023-03-26T11:42:27.694Z,6.04
2023-03-26T11:45:23.325Z,5.74
2023-03-26T11:48:15.816Z,5.68
2023-03-26T11:51:08.320Z,5.66
2023-03-26T11:53:53.819Z,5.71
2023-03-26T11:57:05.434Z,5.75
2023-03-26T12:00:03.969Z,5.95
2023-03-26T12:02:59.308Z,5.62
2023-03-26T12:05:52.588Z,5.90
2023-03-26T12:08:41.424Z,5.78
2023-03-26T12:11:35.144Z,5.83
2023-03-26T12:14:26.181Z,5.82
2023-03-26T12:17:31.460Z,5.75
2023-03-26T12:20:26.877Z,5.60
2023-03-26T12:23:34.512Z,5.53
2023-03-26T12:26:28.598Z,5.42
2023-03-26T12:29:16.904Z,5.08
2023-03-26T12:32:14.245Z,4.96
2023-03-26T12:35:06.607Z,4.94
2023-03-26T12:37:53.158Z,4.80
2023-03-26T12:40:38.738Z,4.54
2023-03-26T12:44:48.305Z,4.88
2023-03-26T12:47:58.041Z,4.83
2023-03-26T12:49:52.803Z,4.78
2023-03-26T12:52:44.135Z,4.72
2023-03-26T12:55:48.835Z,4.52
2023-03-26T12:58:56.116Z,5.03
2023-03-26T13:02:05.180Z,5.21
2023-03-26T13:05:06.027Z,5.07
2023-03-26T13:08:18.055Z,5.00
2023-03-26T13:11:16.862Z,5.03
2023-03-26T13:14:31.497Z,4.71
2023-03-26T13:17:31.897Z,4.31
2023-03-26T13:20:30.659Z,4.23
2023-03-26T13:23:37.573Z,4.39
2023-03-26T13:26:48.770Z,4.59
2023-03-26T13:30:01.726Z,4.71
2023-03-26T13:32:52.753Z,4.69
2023-03-26T13:36:19.343Z,4.64
2023-03-26T13:39:20.053Z,4.78
2023-03-26T13:42:07.761Z,4.80
2023-03-26T13:45:36.445Z,4.91
2023-03-26T13:48:30.018Z,4.67
2023-03-26T13:51:21.987Z,4.95
2023-03-26T13:54:31.427Z,5.13
2023-03-26T13:57:34.686Z,5.03
2023-03-26T14:00:25.611Z,5.30
2023-03-26T14:03:20.669Z,5.13
2023-03-26T14:06:18.311Z,5.42
2023-03-26T14:09:27.709Z,5.23
2023-03-26T14:12:22.116Z,5.22
2023-03-26T14:15:16.450Z,5.42
2023-03-26T14:18:20.770Z,5.82
2023-03-26T14:21:33.618Z,5.90
2023-03-26T14:24:47.030Z,5.98
2023-03-26T14:27:51.524Z,6.01
2023-03-26T14:30:39.786Z,6.00
2023-03-26T14:33:43.770Z,5.90
2023-03-26T14:36:52.935Z,6.02
2023-03-26T14:40:12.554Z,6.15
2023-03-26T14:43:04.035Z,6.22
2023-03-26T14:46:10.957Z,6.37
2023-03-26T14:49:18.161Z,6.51
2023-03-26T14:52:18.828Z,6.34
2023-03-26T14:55:14.480Z,6.19
2023-03-26T14:58:17.093Z,6.22
2023-03-26T15:01:21.248Z,6.31
2023-03-26T15:04:36.100Z,6.24
2023-03-26T15:07:39.877Z,6.36
2023-03-26T15:11:22.515Z,6.12
2023-03-26T15:14:53.124Z,6.11
2023-03-26T15:17:53.584Z,6.35
2023-03-26T15:20:57.335Z,6.33
2023-03-26T15:24:20.240Z,6.35
2023-03-26T15:27:23.579Z,6.14
2023-03-26T15:30:22.015Z,6.06
2023-03-26T15:33:20.957Z,6.04
2023-03-26T15:36:25.326Z,6.04
2023-03-26T15:39:22.951Z,6.10
2023-03-26T15:42:37.963Z,6.14
2023-03-26T15:45:29.698Z,6.04
2023-03-26T15:48:23.131Z,6.12
2023-03-26T15:51:46.872Z,6.10
2023-03-26T15:55:06.315Z,5.77
2023-03-26T15:58:30.913Z,5.90
2023-03-26T16:01:32.638Z,6.12
2023-03-26T16:04:50.288Z,6.23
2023-03-26T16:08:04.140Z,6.23
2023-03-26T16:10:49.362Z,6.25
2023-03-26T16:13:40.514Z,6.15
2023-03-26T16:16:48.636Z,6.13
2023-03-26T16:19:46.390Z,6.15
2023-03-26T16:22:52.903Z,6.02
2023-03-26T16:26:16.670Z,5.93
2023-03-26T16:29:04.996Z,5.87
2023-03-26T16:32:07.558Z,6.02
2023-03-26T16:34:52.721Z,6.12
2023-03-26T16:37:43.840Z,6.10
2023-03-26T16:40:33.986Z,6.02
2023-03-26T16:43:43.949Z,6.07
2023-03-26T16:46:52.867Z,5.97
2023-03-26T16:50:08.831Z,6.07
2023-03-26T16:53:00.088Z,6.01
2023-03-26T16:56:12.943Z,6.12
2023-03-26T16:59:01.885Z,6.20
2023-03-26T17:01:57.102Z,6.10
2023-03-26T17:04:48.507Z,6.03
2023-03-26T17:07:41.476Z,5.80
2023-03-26T17:10:53.034Z,5.87
2023-03-26T17:14:03.826Z,5.65
2023-03-26T17:17:18.049Z,5.78
2023-03-26T17:20:19.078Z,5.87
2023-03-26T17:23:35.764Z,5.94
2023-03-26T17:26:58.078Z,5.97
2023-03-26T17:30:20.464Z,5.95
2023-03-26T17:33:05.817Z,5.81
2023-03-26T17:36:11.735Z,5.90
2023-03-26T17:39:01.582Z,5.21
2023-03-26T17:41:56.143Z,5.50
2023-03-26T17:45:06.202Z,5.48
2023-03-26T17:48:01.700Z,5.32
2023-03-26T17:51:14.042Z,5.45
2023-03-26T17:54:00.058Z,5.56
2023-03-26T17:56:46.910Z,5.50
2023-03-26T17:59:32.780Z,5.42
2023-03-26T18:02:27.818Z,5.39
2023-03-26T18:05:15.894Z,5.61
2023-03-26T18:08:13.306Z,5.68
2023-03-26T18:11:11.011Z,5.67
2023-03-26T18:13:58.987Z,5.71
2023-03-26T18:16:51.445Z,5.68
2023-03-26T18:20:06.554Z,5.57
2023-03-26T18:22:52.805Z,5.27
2023-03-26T18:25:38.639Z,5.09
2023-03-26T18:28:34.408Z,4.89
2023-03-26T18:31:26.504Z,4.76
2023-03-26T18:34:18.868Z,4.77
2023-03-26T18:37:13.226Z,4.64
2023-03-26T18:39:58.537Z,4.10
2023-03-26T18:42:56.298Z,4.10
2023-03-26T18:45:42.701Z,3.93
2023-03-26T18:48:29.193Z,4.19
2023-03-26T18:51:14.658Z,4.14
2023-03-26T18:54:03.330Z,3.73
2023-03-26T18:56:49.072Z,3.84
2023-03-26T18:59:36.072Z,4.05
2023-03-26T19:02:26.341Z,3.48
2023-03-26T19:05:16.952Z,3.75
2023-03-26T19:08:06.090Z,3.69
2023-03-26T19:10:53.137Z,3.44
2023-03-26T19:13:40.089Z,3.36
2023-03-26T19:16:29.002Z,3.33
2023-03-26T19:19:21.430Z,3.34
2023-03-26T19:22:11.282Z,3.45
2023-03-26T19:25:01.256Z,3.48
2023-03-26T19:27:46.795Z,3.52
2023-03-26T19:30:39.300Z,3.24
2023-03-26T19:33:33.827Z,3.18
2023-03-26T19:36:26.845Z,3.43
2023-03-26T19:39:12.942Z,3.40
2023-03-26T19:41:58.344Z,3.35
2023-03-26T19:44:44.510Z,3.32
2023-03-26T19:51:06.935Z,3.23
2023-03-26T19:51:18.448Z,2.93
2023-03-26T19:53:54.575Z,3.42
2023-03-26T19:56:40.323Z,3.39
2023-03-26T19:59:25.649Z,3.71
2023-03-26T20:02:12.408Z,3.73
2023-03-26T20:04:57.711Z,3.72
2023-03-26T20:07:43.156Z,3.62
2023-03-26T20:10:28.650Z,3.13
2023-03-26T20:13:15.937Z,2.87
2023-03-26T20:16:07.374Z,2.89
2023-03-26T20:18:53.593Z,2.77
2023-03-26T20:21:39.101Z,2.54
2023-03-26T20:24:25.393Z,2.56
2023-03-26T20:27:11.618Z,2.31
2023-03-26T20:29:56.990Z,2.57
2023-03-26T20:32:44.414Z,2.63
2023-03-26T20:35:35.768Z,2.48
2023-03-26T20:38:26.474Z,2.61
2023-03-26T20:41:19.619Z,2.12
2023-03-26T20:44:14.723Z,2.38
2023-03-26T20:47:00.386Z,1.94
2023-03-26T20:49:45.737Z,2.28
2023-03-26T20:52:30.826Z,2.30
2023-03-26T20:55:18.901Z,2.31
2023-03-26T20:58:04.448Z,2.44
2023-03-26T21:00:50.303Z,2.07
2023-03-26T21:03:35.929Z,2.17
2023-03-26T21:06:21.458Z,1.93
2023-03-26T21:09:07.074Z,1.87
2023-03-26T21:12:02.380Z,1.98
2023-03-26T21:14:48.243Z,1.84
2023-03-26T21:17:33.646Z,2.21
2023-03-26T21:20:19.748Z,2.12
2023-03-26T21:23:23.580Z,1.93
2023-03-26T21:26:15.205Z,2.24
2023-03-26T21:29:00.381Z,2.03
2023-03-26T21:31:46.039Z,1.97
2023-03-26T21:34:31.794Z,1.97
2023-03-26T21:37:17.228Z,1.82
2023-03-26T21:40:03.067Z,1.69
2023-03-26T21:42:52.521Z,1.19
2023-03-26T21:45:39.383Z,1.54
2023-03-26T21:48:25.383Z,1.51
2023-03-26T21:51:11.629Z,1.26
2023-03-26T21:53:56.981Z,1.21
2023-03-26T21:56:58.350Z,1.09
2023-03-26T22:00:02.364Z,0.93
2023-03-26T22:03:18.175Z,0.88
2023-03-26T22:06:11.527Z,1.25
2023-03-26T22:08:57.134Z,1.19
2023-03-26T22:11:42.221Z,1.03
2023-03-26T22:14:27.853Z,0.96
2023-03-26T22:17:13.644Z,0.87
2023-03-26T22:19:58.948Z,0.82
2023-03-26T22:22:44.067Z,0.80
2023-03-26T22:25:29.388Z,0.66
2023-03-26T22:28:15.017Z,0.58
2023-03-26T22:31:06.023Z,0.22
2023-03-26T22:33:51.774Z,0.36
2023-03-26T22:36:39.784Z,0.48
2023-03-26T22:39:26.251Z,0.46
2023-03-26T22:42:11.497Z,0.40
2023-03-26T22:44:57.035Z,0.40
2023-03-26T22:47:42.454Z,0.43
2023-03-26T22:50:27.679Z,0.78
2023-03-26T22:53:12.938Z,0.88
2023-03-26T22:55:59.186Z,0.87
2023-03-26T22:58:45.418Z,1.01
2023-03-26T23:01:31.024Z,0.84
2023-03-26T23:04:31.423Z,0.69
2023-03-26T23:07:17.506Z,0.53
2023-03-26T23:10:02.973Z,0.36
2023-03-26T23:12:48.576Z,0.33
2023-03-26T23:15:33.754Z,0.34
2023-03-26T23:18:19.803Z,0.35
2023-03-26T23:21:05.936Z,0.52
2023-03-26T23:23:58.122Z,0.35
2023-03-26T23:26:50.427Z,0.44
2023-03-26T23:29:36.621Z,0.72
2023-03-26T23:32:23.383Z,0.69
2023-03-26T23:35:10.054Z,0.54
2023-03-26T23:37:55.088Z,0.37
2023-03-26T23:40:42.697Z,0.24
2023-03-26T23:43:28.984Z,0.52
2023-03-26T23:46:14.427Z,0.51
2023-03-26T23:49:00.188Z,0.45
2023-03-26T23:51:45.546Z,0.20
2023-03-26T23:54:31.591Z,0.23
2023-03-26T23:57:17.132Z,0.27
